createdAt,value
2022-10-15T00:01:16.745Z,98817.39
2022-10-15T00:10:49.794Z,98816.44
2022-10-15T00:20:25.325Z,98816.09
2022-10-15T00:29:57.625Z,98816.81
2022-10-15T00:39:33.581Z,98805.29
2022-10-15T00:49:06.212Z,98802.16
2022-10-15T00:58:40.889Z,98806.36
2022-10-15T01:08:15.070Z,98810.64
2022-10-15T01:17:50.632Z,98813.92
2022-10-15T01:27:24.855Z,98817.43
2022-10-15T01:36:58.569Z,98809.75
2022-10-15T01:46:32.698Z,98792.11
2022-10-15T01:56:06.926Z,98793.49
2022-10-15T02:05:41.288Z,98790.53
2022-10-15T02:15:13.807Z,98788.03
2022-10-15T02:24:50.474Z,98783.45
2022-10-15T02:25:51.986Z,98784.79
2022-10-15T02:35:25.567Z,98785.55
2022-10-15T02:44:58.133Z,98795.66
2022-10-15T02:54:33.740Z,98799.30
2022-10-15T03:04:07.998Z,98796.58
2022-10-15T03:13:40.706Z,98807.51
2022-10-15T03:14:44.757Z,98809.21
2022-10-15T03:24:17.001Z,98806.89
2022-10-15T03:33:51.129Z,98818.06
2022-10-15T03:43:25.053Z,98817.20
2022-10-15T03:52:59.404Z,98824.30
2022-10-15T04:02:33.400Z,98828.50
2022-10-15T04:12:07.383Z,98844.54
2022-10-15T04:21:41.721Z,98853.80
2022-10-15T04:31:15.815Z,98847.30
2022-10-15T04:40:49.824Z,98861.77
2022-10-15T04:50:23.800Z,98856.54
2022-10-15T04:59:59.398Z,98853.77
2022-10-15T05:09:33.093Z,98861.80
2022-10-15T05:19:08.145Z,98856.86
2022-10-15T05:28:43.285Z,98870.38
2022-10-15T05:38:15.037Z,98896.17
2022-10-15T05:47:49.510Z,98932.13
2022-10-15T05:57:23.930Z,98932.50
2022-10-15T06:07:00.082Z,98929.83
2022-10-15T06:16:34.623Z,98931.42
2022-10-15T06:26:07.229Z,98926.78
2022-10-15T06:35:41.956Z,98930.61
2022-10-15T06:45:19.514Z,98940.38
2022-10-15T06:54:51.357Z,98966.13
2022-10-15T07:04:27.571Z,98968.67
2022-10-15T07:14:02.197Z,98994.72
2022-10-15T07:23:35.143Z,98990.27
2022-10-15T07:33:11.639Z,98997.97
2022-10-15T07:42:44.382Z,99002.17
2022-10-15T07:52:18.945Z,99007.17
2022-10-15T08:01:54.002Z,99011.14
2022-10-15T08:11:28.345Z,99011.75
2022-10-15T08:21:02.958Z,99022.13
2022-10-15T08:30:37.982Z,99024.34
2022-10-15T08:40:12.536Z,99029.71
2022-10-15T08:49:47.408Z,99033.87
2022-10-15T08:59:23.841Z,99035.27
2022-10-15T09:08:56.983Z,99045.23
2022-10-15T09:18:33.528Z,99038.72
2022-10-15T09:28:07.061Z,99038.97
2022-10-15T09:29:09.787Z,99037.43
2022-10-15T09:30:17.973Z,99041.97
2022-10-15T09:31:21.101Z,99041.70
2022-10-15T09:32:23.856Z,99044.21
2022-10-15T09:33:27.590Z,99047.17
2022-10-15T09:34:29.928Z,99043.80
2022-10-15T09:35:32.401Z,99044.38
2022-10-15T09:36:37.480Z,99049.82
2022-10-15T09:37:39.741Z,99040.67
2022-10-15T09:38:43.833Z,99045.77
2022-10-15T09:39:47.863Z,99046.75
2022-10-15T09:40:50.196Z,99040.52
2022-10-15T09:41:52.682Z,99042.71
2022-10-15T09:42:55.174Z,99043.61
2022-10-15T09:43:59.178Z,99043.41
2022-10-15T09:45:01.554Z,99039.22
2022-10-15T09:46:04.048Z,99043.39
2022-10-15T09:47:08.128Z,99048.88
2022-10-15T09:48:10.500Z,99050.66
2022-10-15T09:49:12.938Z,99051.02
2022-10-15T09:50:15.488Z,99052.05
2022-10-15T09:51:19.496Z,99052.91
2022-10-15T09:52:22.092Z,99048.88
2022-10-15T09:53:25.900Z,99046.73
2022-10-15T09:54:26.891Z,99051.13
2022-10-15T09:55:29.372Z,99051.35
2022-10-15T09:56:31.917Z,99054.48
2022-10-15T09:57:34.474Z,99054.17
2022-10-15T09:58:37.007Z,99050.66
2022-10-15T09:59:44.495Z,99049.61
2022-10-15T10:00:48.314Z,99053.70
2022-10-15T10:01:50.851Z,99048.53
2022-10-15T10:02:54.825Z,99052.24
2022-10-15T10:03:57.161Z,99054.66
2022-10-15T10:05:01.638Z,99053.38
2022-10-15T10:06:03.790Z,99053.68
2022-10-15T10:07:06.318Z,99050.33
2022-10-15T10:08:08.930Z,99054.78
2022-10-15T10:09:11.349Z,99059.89
2022-10-15T10:10:14.028Z,99054.80
2022-10-15T10:11:16.507Z,99056.39
2022-10-15T10:12:18.870Z,99058.11
2022-10-15T10:13:23.048Z,99057.70
2022-10-15T10:14:27.006Z,99052.69
2022-10-15T10:15:29.433Z,99050.17
2022-10-15T10:16:31.899Z,99048.54
2022-10-15T10:17:34.376Z,99050.34
2022-10-15T10:18:36.865Z,99050.23
2022-10-15T10:19:41.301Z,99055.23
2022-10-15T10:20:43.648Z,99054.88
2022-10-15T10:21:49.878Z,99056.09
2022-10-15T10:22:52.100Z,99061.52
2022-10-15T10:23:54.645Z,99063.36
2022-10-15T10:24:57.068Z,99060.52
2022-10-15T10:25:59.659Z,99064.82
2022-10-15T10:27:02.236Z,99066.34
2022-10-15T10:28:04.678Z,99064.56
2022-10-15T10:29:15.702Z,99066.25
2022-10-15T10:30:11.272Z,99064.57
2022-10-15T10:31:13.642Z,99066.34
2022-10-15T10:40:46.344Z,99066.09
2022-10-15T10:41:48.886Z,99062.44
2022-10-15T10:42:51.355Z,99054.90
2022-10-15T10:43:53.909Z,99050.19
2022-10-15T10:44:56.373Z,99049.23
2022-10-15T10:45:58.867Z,99047.60
2022-10-15T10:47:02.960Z,99043.02
2022-10-15T10:48:05.396Z,99037.00
2022-10-15T10:49:07.940Z,99039.25
2022-10-15T10:50:10.415Z,99041.41
2022-10-15T10:51:16.590Z,99040.16
2022-10-15T10:52:15.451Z,99042.70
2022-10-15T10:53:17.958Z,99043.61
2022-10-15T10:54:20.456Z,99041.91
2022-10-15T10:55:24.548Z,99040.88
2022-10-15T10:56:26.967Z,99030.94
2022-10-15T10:57:31.016Z,99032.00
2022-10-15T10:58:33.380Z,99029.86
2022-10-15T10:59:35.853Z,99031.72
2022-10-15T11:00:40.101Z,99034.45
2022-10-15T11:01:43.966Z,99035.66
2022-10-15T11:02:46.294Z,99030.77
2022-10-15T11:03:48.833Z,99032.03
2022-10-15T11:04:51.351Z,99037.38
2022-10-15T11:05:55.461Z,99040.73
2022-10-15T11:06:57.826Z,99037.55
2022-10-15T11:08:00.555Z,99035.83
2022-10-15T11:09:04.635Z,99037.31
2022-10-15T11:10:07.083Z,99038.45
2022-10-15T11:11:09.646Z,99039.55
2022-10-15T11:12:13.686Z,99032.77
2022-10-15T11:13:16.028Z,99027.08
2022-10-15T11:14:18.514Z,99029.38
2022-10-15T11:15:22.641Z,99025.80
2022-10-15T11:16:25.006Z,99021.89
2022-10-15T11:17:27.519Z,99023.59
2022-10-15T11:18:29.955Z,99017.55
2022-10-15T11:19:54.983Z,99020.38
2022-10-15T11:20:51.214Z,99019.81
2022-10-15T11:21:39.347Z,99018.64
2022-10-15T11:22:44.766Z,99006.63
2022-10-15T11:23:47.021Z,99016.84
2022-10-15T11:33:19.691Z,99011.18
2022-10-15T11:34:23.856Z,99015.03
2022-10-15T11:35:41.238Z,99012.59
2022-10-15T11:36:30.233Z,99018.03
2022-10-15T11:37:32.674Z,99010.27
2022-10-15T11:38:36.703Z,99004.65
2022-10-15T11:39:40.734Z,99012.94
2022-10-15T11:40:44.649Z,99006.81
2022-10-15T11:41:46.964Z,99008.40
2022-10-15T11:42:51.013Z,99006.09
2022-10-15T11:43:53.356Z,99015.89
2022-10-15T11:44:55.821Z,99012.02
2022-10-15T11:45:59.939Z,99012.39
2022-10-15T11:47:02.229Z,99009.84
2022-10-15T11:48:04.820Z,99013.28
2022-10-15T11:49:08.327Z,99015.70
2022-10-15T11:50:12.190Z,99022.63
2022-10-15T11:51:16.313Z,99009.22
2022-10-15T11:52:18.749Z,99007.47
2022-10-15T11:53:21.231Z,99008.99
2022-10-15T11:54:25.402Z,99005.03
2022-10-15T12:03:58.558Z,98998.09
2022-10-15T12:05:00.907Z,99004.92
2022-10-15T12:06:04.976Z,99000.46
2022-10-15T12:07:07.300Z,99000.08
2022-10-15T12:08:10.881Z,98995.16
2022-10-15T12:09:14.899Z,98990.92
2022-10-15T12:10:18.761Z,98986.91
2022-10-15T12:11:21.257Z,98984.27
2022-10-15T12:12:23.970Z,98983.47
2022-10-15T12:13:26.490Z,98980.53
2022-10-15T12:14:29.061Z,98982.35
2022-10-15T12:15:31.544Z,98980.14
2022-10-15T12:16:34.278Z,98977.27
2022-10-15T12:17:36.844Z,98975.69
2022-10-15T12:18:39.344Z,98976.14
2022-10-15T12:19:43.443Z,98973.58
2022-10-15T12:20:47.477Z,98980.70
2022-10-15T12:21:51.424Z,98981.38
2022-10-15T12:22:55.330Z,98975.40
2022-10-15T12:23:57.736Z,98977.84
2022-10-15T12:25:01.212Z,98982.58
2022-10-15T12:26:03.671Z,98975.44
2022-10-15T12:27:07.144Z,98977.23
2022-10-15T12:28:09.520Z,98972.22
2022-10-15T12:29:12.046Z,98982.25
2022-10-15T12:30:14.491Z,98969.35
2022-10-15T12:31:16.928Z,98968.20
2022-10-15T12:32:22.061Z,98973.58
2022-10-15T12:33:24.410Z,98972.61
2022-10-15T12:34:28.492Z,98966.44
2022-10-15T12:35:30.799Z,98969.73
2022-10-15T12:36:34.251Z,98964.28
2022-10-15T12:37:38.269Z,98961.73
2022-10-15T12:38:40.657Z,98966.13
2022-10-15T12:39:58.495Z,98961.05
2022-10-15T12:40:49.422Z,98965.59
2022-10-15T12:41:51.698Z,98963.72
2022-10-15T12:42:54.159Z,98959.73
2022-10-15T12:43:58.368Z,98952.05
2022-10-15T12:45:00.735Z,98946.80
2022-10-15T12:46:04.771Z,98952.72
2022-10-15T12:47:07.146Z,98945.39
2022-10-15T12:48:09.622Z,98948.34
2022-10-15T12:49:13.704Z,98954.05
2022-10-15T12:50:17.678Z,98966.83
2022-10-15T12:51:20.033Z,98964.29
2022-10-15T12:52:24.125Z,98977.09
2022-10-15T12:53:28.143Z,98968.55
2022-10-15T12:54:33.530Z,98966.00
2022-10-15T12:55:35.759Z,98965.53
2022-10-15T12:56:38.235Z,98968.23
2022-10-15T12:57:40.754Z,98957.03
2022-10-15T12:58:43.279Z,98957.44
2022-10-15T12:59:45.751Z,98953.86
2022-10-15T13:00:49.257Z,98945.51
2022-10-15T13:01:51.639Z,98947.59
2022-10-15T13:02:54.107Z,98945.11
2022-10-15T13:03:58.238Z,98943.53
2022-10-15T13:05:01.739Z,98940.13
2022-10-15T13:06:04.126Z,98945.48
2022-10-15T13:07:08.212Z,98942.60
2022-10-15T13:08:10.600Z,98939.95
2022-10-15T13:09:13.097Z,98941.74
2022-10-15T13:10:15.569Z,98944.66
2022-10-15T13:11:18.094Z,98932.94
2022-10-15T13:12:20.464Z,98941.33
2022-10-15T13:13:24.545Z,98940.92
2022-10-15T13:14:26.980Z,98949.95
2022-10-15T13:15:29.459Z,98950.83
2022-10-15T13:16:33.485Z,98947.38
2022-10-15T13:17:37.479Z,98952.03
2022-10-15T13:18:39.850Z,98951.69
2022-10-15T13:19:42.318Z,98951.50
2022-10-15T13:20:44.793Z,98954.84
2022-10-15T13:21:48.919Z,98951.60
2022-10-15T13:22:55.240Z,98950.45
2022-10-15T13:23:55.272Z,98945.88
2022-10-15T13:24:58.816Z,98947.44
2022-10-15T13:26:02.572Z,98946.46
2022-10-15T13:27:04.957Z,98946.20
2022-10-15T13:28:12.105Z,98945.40
2022-10-15T13:29:12.577Z,98953.16
2022-10-15T13:30:17.530Z,98946.73
2022-10-15T13:31:19.770Z,98949.37
2022-10-15T13:32:22.741Z,98948.44
2022-10-15T13:33:24.877Z,98959.14
2022-10-15T13:34:28.902Z,98953.10
2022-10-15T13:35:32.983Z,98952.80
2022-10-15T13:36:37.824Z,98950.52
2022-10-15T13:37:40.241Z,98961.75
2022-10-15T13:38:46.566Z,98957.19
2022-10-15T13:39:47.594Z,98949.27
2022-10-15T13:40:52.439Z,98956.92
2022-10-15T13:41:54.814Z,98958.66
2022-10-15T13:42:57.326Z,98968.80
2022-10-15T13:43:59.941Z,98954.47
2022-10-15T13:45:02.484Z,98959.43
2022-10-15T13:46:05.001Z,98966.67
2022-10-15T13:47:07.431Z,98968.03
2022-10-15T13:48:09.947Z,98962.85
2022-10-15T13:49:12.427Z,98968.20
2022-10-15T13:50:14.953Z,98965.80
2022-10-15T13:51:17.368Z,98974.41
2022-10-15T13:52:19.812Z,98963.36
2022-10-15T13:53:22.333Z,98961.78
2022-10-15T13:54:24.848Z,98964.48
2022-10-15T13:55:27.212Z,98957.53
2022-10-15T13:56:29.685Z,98969.55
2022-10-15T13:57:32.222Z,98964.27
2022-10-15T13:58:34.614Z,98965.38
2022-10-15T13:59:39.684Z,98970.83
2022-10-15T14:00:42.009Z,98977.68
2022-10-15T14:01:44.332Z,98971.70
2022-10-15T14:02:46.825Z,98979.42
2022-10-15T14:03:50.882Z,98974.55
2022-10-15T14:04:53.278Z,98979.26
2022-10-15T14:05:57.398Z,98973.27
2022-10-15T14:07:02.883Z,98970.86
2022-10-15T14:08:07.269Z,98972.47
2022-10-15T14:09:13.612Z,98964.14
2022-10-15T14:10:17.567Z,98961.00
2022-10-15T14:11:21.600Z,98958.92
2022-10-15T14:12:25.656Z,98962.02
2022-10-15T14:13:29.669Z,98969.05
2022-10-15T14:14:31.980Z,98956.21
2022-10-15T14:15:34.461Z,98954.58
2022-10-15T14:16:36.909Z,98948.69
2022-10-15T14:17:40.442Z,98964.11
2022-10-15T14:18:45.076Z,98959.23
2022-10-15T14:19:47.235Z,98961.46
2022-10-15T14:20:51.028Z,98969.45
2022-10-15T14:21:54.896Z,98968.44
2022-10-15T14:22:57.466Z,98977.51
2022-10-15T14:24:01.734Z,98983.80
2022-10-15T14:25:04.065Z,98973.34
2022-10-15T14:26:06.516Z,98971.81
2022-10-15T14:27:10.601Z,98966.63
2022-10-15T14:28:14.627Z,98966.04
2022-10-15T14:29:17.021Z,98966.82
2022-10-15T14:30:19.505Z,98967.06
2022-10-15T14:31:22.038Z,98968.42
2022-10-15T14:32:29.492Z,98968.67
2022-10-15T14:33:33.232Z,98970.03
2022-10-15T14:34:37.200Z,98970.48
2022-10-15T14:35:39.568Z,98964.00
2022-10-15T14:36:42.071Z,98972.50
2022-10-15T14:37:47.123Z,98982.22
2022-10-15T14:38:49.722Z,98969.77
2022-10-15T14:39:53.766Z,98970.07
2022-10-15T14:40:56.102Z,98978.06
2022-10-15T14:42:00.196Z,98984.70
2022-10-15T14:43:04.097Z,98981.34
2022-10-15T14:44:06.509Z,98976.47
2022-10-15T14:45:10.619Z,98976.27
2022-10-15T14:46:14.613Z,98974.86
2022-10-15T14:47:16.959Z,98979.66
2022-10-15T14:48:19.387Z,98982.19
2022-10-15T14:49:22.945Z,98982.78
2022-10-15T14:50:25.620Z,98984.08
2022-10-15T14:51:28.068Z,98977.30
2022-10-15T14:52:30.714Z,98985.84
2022-10-15T14:53:33.188Z,98975.17
2022-10-15T14:54:35.659Z,98989.73
2022-10-15T14:55:38.120Z,98972.31
2022-10-15T14:56:40.627Z,98988.97
2022-10-15T14:57:44.754Z,98973.59
2022-10-15T14:58:47.153Z,98978.09
2022-10-15T14:59:51.251Z,98969.77
2022-10-15T15:00:53.622Z,98974.38
2022-10-15T15:01:57.324Z,98978.55
2022-10-15T15:02:58.726Z,98983.83
2022-10-15T15:04:01.562Z,98973.12
2022-10-15T15:05:04.254Z,98978.72
2022-10-15T15:06:06.628Z,98975.88
2022-10-15T15:07:09.133Z,98966.03
2022-10-15T15:16:41.828Z,98984.20
2022-10-15T15:17:44.308Z,98984.72
2022-10-15T15:18:48.559Z,98978.30
2022-10-15T15:19:50.850Z,98976.00
2022-10-15T15:20:53.346Z,98979.81
2022-10-15T15:21:55.904Z,98981.44
2022-10-15T15:22:58.365Z,98986.02
2022-10-15T15:24:00.835Z,98986.83
2022-10-15T15:25:03.311Z,98989.56
2022-10-15T15:26:07.419Z,98991.22
2022-10-15T15:27:11.382Z,98995.83
2022-10-15T15:28:13.915Z,98997.63
2022-10-15T15:29:16.510Z,99000.44
2022-10-15T15:30:20.463Z,99002.34
2022-10-15T15:31:24.435Z,99002.05
2022-10-15T15:32:27.093Z,98999.41
2022-10-15T15:33:30.282Z,99003.12
2022-10-15T15:34:32.629Z,99001.41
2022-10-15T15:35:35.270Z,98999.61
2022-10-15T15:36:37.691Z,98997.48
2022-10-15T15:37:40.200Z,98996.72
2022-10-15T15:38:44.251Z,99004.02
2022-10-15T15:39:46.694Z,98997.92
2022-10-15T15:40:50.826Z,98998.92
2022-10-15T15:41:53.199Z,99001.27
2022-10-15T15:42:55.627Z,99003.34
2022-10-15T15:43:58.089Z,99004.11
2022-10-15T15:45:00.516Z,99001.27
2022-10-15T15:46:03.033Z,99003.30
2022-10-15T15:47:07.368Z,99010.66
2022-10-15T15:48:09.656Z,99004.39
2022-10-15T15:49:12.167Z,99006.16
2022-10-15T15:50:16.245Z,99005.00
2022-10-15T15:51:18.630Z,99009.91
2022-10-15T15:52:23.023Z,99003.80
2022-10-15T15:53:25.208Z,99000.65
2022-10-15T15:54:29.360Z,99007.55
2022-10-15T15:55:31.758Z,99003.56
2022-10-15T15:56:34.221Z,98999.58
2022-10-15T15:57:38.276Z,98999.78
2022-10-15T15:58:40.653Z,99001.47
2022-10-15T15:59:44.702Z,99002.23
2022-10-15T16:00:47.264Z,99001.37
2022-10-15T16:01:49.801Z,98998.23
2022-10-15T16:02:56.983Z,99000.16
2022-10-15T16:04:01.167Z,99006.59
2022-10-15T16:05:03.359Z,99003.69
2022-10-15T16:06:05.836Z,99005.83
2022-10-15T16:07:10.185Z,99003.06
2022-10-15T16:08:15.660Z,99013.25
2022-10-15T16:09:17.845Z,99007.98
2022-10-15T16:10:20.329Z,99014.13
2022-10-15T16:11:22.839Z,99009.69
2022-10-15T16:12:25.292Z,99010.20
2022-10-15T16:13:27.711Z,99015.44
2022-10-15T16:14:30.162Z,99018.76
2022-10-15T16:15:34.219Z,99026.70
2022-10-15T16:16:36.578Z,99022.17
2022-10-15T16:17:39.016Z,99023.67
2022-10-15T16:18:41.605Z,99023.33
2022-10-15T16:19:45.609Z,99024.03
2022-10-15T16:20:48.793Z,99025.20
2022-10-15T16:21:50.717Z,99023.91
2022-10-15T16:22:54.739Z,99023.46
2022-10-15T16:23:57.193Z,99022.03
2022-10-15T16:24:59.621Z,99031.20
2022-10-15T16:26:02.117Z,99028.09
2022-10-15T16:35:36.452Z,99031.61
2022-10-15T16:45:08.343Z,99048.63
2022-10-15T16:54:42.741Z,99052.70
2022-10-15T17:04:17.697Z,99065.44
2022-10-15T17:13:52.605Z,99071.75
2022-10-15T17:23:32.830Z,99088.47
2022-10-15T17:33:02.778Z,99092.61
2022-10-15T17:42:38.843Z,99094.05
2022-10-15T17:52:11.993Z,99113.10
2022-10-15T18:01:57.645Z,99117.38
2022-10-15T18:11:20.966Z,99136.13
2022-10-15T18:20:56.551Z,99138.52
2022-10-15T18:30:30.180Z,99137.35
2022-10-15T18:40:05.419Z,99133.13
2022-10-15T18:41:07.876Z,99133.87
2022-10-15T18:50:41.772Z,99149.84
2022-10-15T19:00:16.235Z,99156.66
2022-10-15T19:09:50.678Z,99147.25
2022-10-15T19:19:24.967Z,99153.94
2022-10-15T19:28:59.658Z,99160.19
2022-10-15T19:38:36.147Z,99173.40
2022-10-15T19:48:08.604Z,99184.69
2022-10-15T19:57:42.734Z,99194.88
2022-10-15T20:07:17.172Z,99211.53
2022-10-15T20:16:53.271Z,99217.31
2022-10-15T20:26:26.715Z,99216.88
2022-10-15T20:36:00.204Z,99227.72
2022-10-15T20:45:34.492Z,99256.06
2022-10-15T20:55:08.896Z,99259.08
2022-10-15T21:04:44.270Z,99260.17
2022-10-15T21:14:18.063Z,99268.13
2022-10-15T21:23:50.773Z,99269.02
2022-10-15T21:33:24.997Z,99282.88
2022-10-15T21:42:59.634Z,99305.31
2022-10-15T21:52:34.533Z,99310.48
2022-10-15T22:02:10.208Z,99315.29
2022-10-15T22:11:44.312Z,99320.91
2022-10-15T22:21:17.128Z,99320.19
2022-10-15T22:30:53.289Z,99313.78
2022-10-15T22:40:27.754Z,99330.48
2022-10-15T22:50:00.047Z,99318.45
2022-10-15T22:59:34.040Z,99321.27
2022-10-15T23:09:06.836Z,99340.77
2022-10-15T23:18:41.162Z,99348.72
2022-10-15T23:28:15.361Z,99345.32
2022-10-15T23:37:49.685Z,99356.79
2022-10-15T23:47:24.602Z,99361.11
2022-10-15T23:57:00.229Z,99336.14
